13°C Temp
3°C Dewpoint
51% Humidity
Temperature
5 KM/H
3 MPH
3 KTS
270°
Due West

Wind Speed
Mostly Scattered
Clouds
Pressure 1020.92 (hPa) - 30.15 (in)
Visibility 6.2 (mi) - 10.0 (km)

Current Conditions
LIMC
Location Malpensa 50(km)
Metar :LIMC 101350Z 27003KT 210V340 9999 SCT050 BKN080 13/03 Q1021 NOSIG
Sat 10th April 14:50 pm

Airport
  Metar Aviation API Data Provided by https://www.checkwx.com/ PHP scripts by weather34.com ©2021